Terminal Aerodrome Forecast
Issued by NWS

Home | Current Version | Previous Version | Text Only | Print | Product List | Glossary On
Versions: 1 2 3 4 5 6 7 8 9 10 11 12
000
FTUS42 TJSJ 040525
TAFKPK
TAF
TKPK 040525Z 0406/0506 03005KT P6SM FEW022
     FM041400 06012KT P6SM FEW025
     FM042200 05007KT P6SM FEW022
      AMD NOT SKED TIL 041100=

USA.gov is the U.S. government's official web portal to all federal, state and local government web resources and services.